Time;durP1;ratioP1;P1;durP2;ratioP2;P2;SDS_P1;SDS_P2;PMS_P1;PMS_P2;Temp;Humidity;BMP_temperature;BMP_pressure;BME280_temperature;BME280_humidity;BME280_pressure;Samples;Min_cycle;Max_cycle;Signal;HPM_P1;HPM_P2
2022/06/13 00:01:11;;;;;;;6.70;2.67;;;;;;;;;;5118022;27;20460;-70
2022/06/13 00:03:42;;;;;;;8.17;3.20;;;;;;;;;;5117771;27;20462;-71
2022/06/13 00:06:12;;;;;;;7.60;2.93;;;;;;;;;;5117321;27;20938;-71
2022/06/13 00:08:40;;;;;;;5.60;2.60;;;;;;;;;;5117931;27;20446;-71
2022/06/13 00:11:11;;;;;;;8.33;3.20;;;;;;;;;;5118740;27;20458;-71
2022/06/13 00:13:39;;;;;;;8.83;2.90;;;;;;;;;;5117991;27;20490;-71
2022/06/13 00:16:07;;;;;;;9.87;3.90;;;;;;;;;;5117830;27;20454;-71
2022/06/13 00:18:34;;;;;;;7.40;2.83;;;;;;;;;;5117786;27;20454;-71
2022/06/13 00:21:03;;;;;;;11.20;4.03;;;;;;;;;;5117479;27;20458;-71
2022/06/13 00:23:32;;;;;;;6.10;2.70;;;;;;;;;;5117988;27;20454;-71
2022/06/13 00:26:00;;;;;;;11.57;3.90;;;;;;;;;;5117581;27;20557;-71
2022/06/13 00:28:28;;;;;;;8.47;3.20;;;;;;;;;;5117565;27;20469;-71
2022/06/13 00:30:56;;;;;;;7.23;3.70;;;;;;;;;;5117954;27;20749;-70
2022/06/13 00:33:24;;;;;;;10.90;3.57;;;;;;;;;;5118052;27;20505;-70
2022/06/13 00:35:51;;;;;;;6.17;2.90;;;;;;;;;;5117642;27;20710;-71
2022/06/13 00:38:19;;;;;;;9.33;3.10;;;;;;;;;;5117579;27;20451;-71
2022/06/13 00:40:49;;;;;;;25.13;4.90;;;;;;;;;;5117366;27;20717;-70
2022/06/13 00:43:17;;;;;;;8.63;3.23;;;;;;;;;;5117714;27;20837;-70
2022/06/13 00:45:45;;;;;;;7.30;3.40;;;;;;;;;;5117291;27;20533;-71
2022/06/13 00:48:14;;;;;;;5.67;3.30;;;;;;;;;;5117445;27;20459;-71
2022/06/13 00:50:45;;;;;;;9.67;3.80;;;;;;;;;;5116967;27;20517;-71
2022/06/13 00:53:14;;;;;;;9.50;3.37;;;;;;;;;;5117591;27;20753;-70
2022/06/13 00:55:46;;;;;;;9.57;3.93;;;;;;;;;;5117193;27;20478;-71
2022/06/13 00:58:16;;;;;;;8.57;3.50;;;;;;;;;;5116966;27;20603;-71
2022/06/13 01:00:45;;;;;;;10.63;4.60;;;;;;;;;;5115955;27;20455;-71
2022/06/13 01:03:13;;;;;;;10.90;4.00;;;;;;;;;;5117554;27;20474;-72
2022/06/13 01:05:42;;;;;;;7.67;3.70;;;;;;;;;;5116378;27;20525;-71
2022/06/13 01:08:11;;;;;;;8.60;4.30;;;;;;;;;;5117103;27;20519;-71
2022/06/13 01:13:30;;;;;;;10.73;3.07;;;;;;;;;;5117203;27;20434;-71
2022/06/13 01:16:07;;;;;;;6.60;3.70;;;;;;;;;;5117189;28;20477;-71
2022/06/13 01:18:49;;;;;;;8.97;3.40;;;;;;;;;;5116276;27;20520;-70
2022/06/13 01:21:20;;;;;;;7.50;3.07;;;;;;;;;;5116782;27;20710;-71
2022/06/13 01:24:03;;;;;;;12.47;3.23;;;;;;;;;;5116548;27;20447;-71
2022/06/13 01:26:48;;;;;;;7.90;3.23;;;;;;;;;;5116562;27;20569;-71
2022/06/13 01:29:34;;;;;;;8.87;3.10;;;;;;;;;;5116556;27;20469;-71
2022/06/13 01:32:07;;;;;;;9.13;3.63;;;;;;;;;;5116395;28;20457;-71
2022/06/13 01:34:40;;;;;;;7.20;5.20;;;;;;;;;;5116773;27;20486;-71
2022/06/13 01:37:12;;;;;;;11.30;4.10;;;;;;;;;;5116715;27;20455;-71
2022/06/13 01:39:46;;;;;;;6.67;3.57;;;;;;;;;;5116375;27;20873;-71
2022/06/13 01:42:20;;;;;;;7.70;4.17;;;;;;;;;;5116563;27;20568;-71
2022/06/13 01:44:55;;;;;;;11.80;3.40;;;;;;;;;;5115984;28;20465;-71
2022/06/13 01:47:29;;;;;;;6.80;3.10;;;;;;;;;;5116154;27;20477;-71
2022/06/13 01:50:01;;;;;;;7.00;2.90;;;;;;;;;;5116374;27;20514;-71
2022/06/13 01:52:31;;;;;;;7.47;3.27;;;;;;;;;;5115736;27;20490;-71
2022/06/13 01:55:02;;;;;;;7.03;3.47;;;;;;;;;;5116316;27;20799;-70
2022/06/13 01:57:34;;;;;;;7.90;3.40;;;;;;;;;;5116404;27;20473;-71
2022/06/13 02:00:07;;;;;;;8.97;3.10;;;;;;;;;;5116022;27;20462;-70
2022/06/13 02:02:39;;;;;;;6.90;3.97;;;;;;;;;;5115989;27;20746;-71
2022/06/13 02:05:09;;;;;;;8.47;3.03;;;;;;;;;;5114915;27;20757;-71
2022/06/13 02:07:42;;;;;;;5.97;3.60;;;;;;;;;;5115670;27;20539;-71
2022/06/13 02:10:12;;;;;;;6.13;3.50;;;;;;;;;;5116104;27;20735;-71
2022/06/13 02:12:45;;;;;;;9.20;4.23;;;;;;;;;;5114795;28;20450;-71
2022/06/13 02:15:16;;;;;;;9.67;4.07;;;;;;;;;;5115198;27;20501;-71
2022/06/13 02:17:48;;;;;;;10.07;3.40;;;;;;;;;;5114702;27;20443;-71
2022/06/13 02:20:19;;;;;;;9.13;3.40;;;;;;;;;;5114134;27;20488;-71
2022/06/13 02:22:48;;;;;;;8.63;4.60;;;;;;;;;;5115263;27;20549;-71
2022/06/13 02:25:19;;;;;;;15.03;3.73;;;;;;;;;;5114703;28;20455;-71
2022/06/13 02:27:49;;;;;;;6.20;3.97;;;;;;;;;;5115194;27;20526;-70
2022/06/13 02:30:19;;;;;;;10.70;4.80;;;;;;;;;;5115082;27;20482;-70
2022/06/13 02:32:50;;;;;;;11.27;3.87;;;;;;;;;;5115100;28;20743;-71
2022/06/13 02:35:20;;;;;;;11.43;4.30;;;;;;;;;;5114463;28;20558;-71
2022/06/13 02:37:49;;;;;;;9.90;3.93;;;;;;;;;;5115174;28;20486;-71
2022/06/13 02:40:18;;;;;;;10.10;4.67;;;;;;;;;;5115216;27;20455;-71
2022/06/13 02:42:49;;;;;;;8.30;4.00;;;;;;;;;;5115274;28;20734;-71
2022/06/13 02:45:18;;;;;;;6.83;3.73;;;;;;;;;;5115756;27;20944;-71
2022/06/13 02:47:47;;;;;;;12.17;4.23;;;;;;;;;;5114771;28;20556;-71
2022/06/13 02:50:18;;;;;;;11.43;4.80;;;;;;;;;;5114289;27;20469;-71
2022/06/13 02:52:50;;;;;;;9.20;3.93;;;;;;;;;;5115212;27;20565;-71
2022/06/13 02:55:19;;;;;;;9.03;5.30;;;;;;;;;;5114573;28;20890;-71
2022/06/13 02:57:55;;;;;;;11.93;3.97;;;;;;;;;;5114575;27;20881;-71
2022/06/13 03:00:27;;;;;;;7.50;3.73;;;;;;;;;;5114312;27;20515;-71
2022/06/13 03:03:00;;;;;;;6.50;5.53;;;;;;;;;;5114412;27;20610;-71
2022/06/13 03:05:47;;;;;;;9.83;3.67;;;;;;;;;;5114800;27;20473;-71
2022/06/13 03:08:25;;;;;;;14.03;4.40;;;;;;;;;;5114266;28;20454;-70
2022/06/13 03:10:57;;;;;;;10.40;4.30;;;;;;;;;;5114223;27;20454;-71
2022/06/13 03:13:30;;;;;;;10.63;4.40;;;;;;;;;;5114765;28;20465;-71
2022/06/13 03:16:02;;;;;;;11.83;4.40;;;;;;;;;;5114248;27;20486;-71
2022/06/13 03:18:34;;;;;;;14.53;5.23;;;;;;;;;;5113849;27;20823;-71
2022/06/13 03:21:08;;;;;;;8.17;4.17;;;;;;;;;;5113668;28;20523;-70
2022/06/13 03:23:43;;;;;;;10.40;3.90;;;;;;;;;;5113655;28;20960;-70
2022/06/13 03:26:15;;;;;;;8.67;4.83;;;;;;;;;;5113698;28;20458;-70
2022/06/13 03:28:47;;;;;;;10.93;4.90;;;;;;;;;;5114744;28;20465;-70
2022/06/13 03:31:16;;;;;;;8.20;3.77;;;;;;;;;;5113168;28;20462;-70
2022/06/13 03:33:46;;;;;;;10.60;4.67;;;;;;;;;;5114532;28;20527;-70
2022/06/13 03:36:16;;;;;;;7.23;4.33;;;;;;;;;;5113666;28;20482;-70
2022/06/13 03:38:47;;;;;;;9.10;4.07;;;;;;;;;;5113794;28;20455;-70
2022/06/13 03:41:17;;;;;;;11.80;4.30;;;;;;;;;;5114341;28;20463;-70
2022/06/13 03:43:47;;;;;;;12.47;4.57;;;;;;;;;;5114152;28;20784;-70
2022/06/13 03:46:19;;;;;;;13.03;4.63;;;;;;;;;;5113817;28;20466;-71
2022/06/13 03:48:50;;;;;;;9.77;4.10;;;;;;;;;;5113959;28;20515;-71
2022/06/13 03:51:20;;;;;;;12.83;4.80;;;;;;;;;;5113380;28;20588;-71
2022/06/13 03:53:51;;;;;;;10.00;6.10;;;;;;;;;;5113427;28;20446;-71
2022/06/13 03:56:23;;;;;;;16.70;5.10;;;;;;;;;;5113423;28;20510;-71
2022/06/13 03:58:53;;;;;;;7.60;4.83;;;;;;;;;;5113775;28;20462;-71
2022/06/13 04:01:22;;;;;;;8.83;4.30;;;;;;;;;;5113843;28;20462;-71
2022/06/13 04:03:50;;;;;;;8.43;5.13;;;;;;;;;;5113730;28;20482;-71
2022/06/13 04:06:39;;;;;;;9.80;4.20;;;;;;;;;;5113175;28;20524;-70
2022/06/13 04:09:14;;;;;;;13.17;4.67;;;;;;;;;;5107224;28;20470;-71
2022/06/13 04:11:55;;;;;;;8.37;4.50;;;;;;;;;;5104216;28;20985;-71
2022/06/13 04:14:28;;;;;;;11.07;4.57;;;;;;;;;;5111263;28;20842;-71
2022/06/13 04:16:59;;;;;;;9.97;5.20;;;;;;;;;;5113345;28;20462;-71
2022/06/13 04:19:34;;;;;;;11.10;4.60;;;;;;;;;;5112537;28;20455;-71
2022/06/13 04:22:07;;;;;;;10.80;6.23;;;;;;;;;;5112652;28;20458;-71
2022/06/13 04:24:42;;;;;;;7.27;3.63;;;;;;;;;;5093171;28;20464;-71
2022/06/13 04:27:19;;;;;;;10.70;5.40;;;;;;;;;;5093185;28;20455;-71
2022/06/13 04:29:49;;;;;;;14.50;4.77;;;;;;;;;;5107069;28;20834;-71
2022/06/13 04:32:21;;;;;;;7.70;4.13;;;;;;;;;;5112842;28;21049;-71
2022/06/13 04:34:51;;;;;;;14.27;4.67;;;;;;;;;;5113252;28;20547;-71
2022/06/13 04:37:19;;;;;;;13.37;3.70;;;;;;;;;;5116262;27;20462;-71
2022/06/13 04:39:50;;;;;;;9.80;5.30;;;;;;;;;;5116851;27;20459;-71
2022/06/13 04:42:20;;;;;;;12.13;4.53;;;;;;;;;;5116675;27;20450;-71
2022/06/13 04:44:49;;;;;;;14.67;4.47;;;;;;;;;;5116844;27;20545;-71
2022/06/13 04:47:18;;;;;;;6.77;3.97;;;;;;;;;;5115838;27;20461;-71
2022/06/13 04:49:50;;;;;;;13.03;4.17;;;;;;;;;;5117076;27;20476;-71
2022/06/13 04:52:19;;;;;;;13.57;4.40;;;;;;;;;;5115269;27;20450;-71
2022/06/13 04:54:53;;;;;;;15.87;4.80;;;;;;;;;;5115663;27;20463;-72
2022/06/13 04:57:21;;;;;;;13.83;4.93;;;;;;;;;;5115929;27;20450;-71
2022/06/13 04:59:49;;;;;;;12.10;5.37;;;;;;;;;;5115626;27;20469;-71
2022/06/13 05:02:19;;;;;;;12.77;4.80;;;;;;;;;;5116132;27;20900;-72
2022/06/13 05:04:47;;;;;;;11.67;4.60;;;;;;;;;;5115177;27;21008;-71
2022/06/13 05:07:20;;;;;;;12.20;4.57;;;;;;;;;;5114377;27;20447;-71
2022/06/13 05:09:51;;;;;;;12.20;4.40;;;;;;;;;;5115143;27;20477;-71
2022/06/13 05:12:22;;;;;;;13.77;3.83;;;;;;;;;;5111431;27;20467;-72
2022/06/13 05:14:52;;;;;;;14.43;4.50;;;;;;;;;;5114934;27;20466;-71
2022/06/13 05:17:29;;;;;;;13.93;4.30;;;;;;;;;;5114287;27;20764;-71
2022/06/13 05:20:01;;;;;;;11.13;4.50;;;;;;;;;;5112307;28;20726;-72
2022/06/13 05:22:42;;;;;;;7.70;3.77;;;;;;;;;;5113150;27;20935;-72
2022/06/13 05:25:17;;;;;;;9.00;3.63;;;;;;;;;;5111733;27;20454;-72
2022/06/13 05:27:45;;;;;;;14.30;4.10;;;;;;;;;;5111909;27;20461;-72
2022/06/13 05:30:17;;;;;;;8.80;4.30;;;;;;;;;;5112997;27;20470;-72
2022/06/13 05:32:49;;;;;;;10.00;3.70;;;;;;;;;;5113438;27;20453;-73
2022/06/13 05:35:19;;;;;;;9.30;4.00;;;;;;;;;;5113169;27;20758;-72
2022/06/13 05:37:49;;;;;;;7.07;3.33;;;;;;;;;;5109504;27;20915;-72
2022/06/13 05:40:20;;;;;;;8.70;3.30;;;;;;;;;;5093584;28;20466;-72
2022/06/13 05:42:51;;;;;;;11.10;3.90;;;;;;;;;;5092744;28;20536;-72
2022/06/13 05:45:27;;;;;;;12.37;3.90;;;;;;;;;;5092984;28;20460;-72
2022/06/13 05:47:56;;;;;;;6.67;2.77;;;;;;;;;;5109867;27;20873;-73
2022/06/13 05:50:29;;;;;;;11.27;3.60;;;;;;;;;;5113532;27;20450;-72
2022/06/13 05:52:58;;;;;;;6.47;2.90;;;;;;;;;;5105676;27;20800;-72
2022/06/13 05:55:28;;;;;;;9.83;4.03;;;;;;;;;;5113456;27;20572;-72
2022/06/13 05:57:57;;;;;;;10.00;3.20;;;;;;;;;;5112623;27;20454;-72
2022/06/13 06:00:32;;;;;;;14.53;5.03;;;;;;;;;;5112641;27;20539;-72
2022/06/13 06:03:00;;;;;;;6.87;3.13;;;;;;;;;;5112821;27;20457;-72
2022/06/13 06:05:31;;;;;;;8.03;2.93;;;;;;;;;;5113618;27;20454;-72
2022/06/13 06:08:02;;;;;;;8.13;2.63;;;;;;;;;;5113408;27;20493;-72
2022/06/13 06:10:34;;;;;;;8.53;3.40;;;;;;;;;;5112670;27;20617;-72
2022/06/13 06:13:02;;;;;;;49.60;12.07;;;;;;;;;;5113125;27;20459;-72
2022/06/13 06:15:30;;;;;;;12.07;2.93;;;;;;;;;;5112194;27;20475;-72
2022/06/13 06:18:01;;;;;;;8.37;2.67;;;;;;;;;;5111074;27;20471;-72
2022/06/13 06:20:29;;;;;;;6.53;2.40;;;;;;;;;;5112124;27;20821;-72
2022/06/13 06:23:04;;;;;;;6.90;2.10;;;;;;;;;;5112396;27;20521;-72
2022/06/13 06:25:36;;;;;;;8.50;2.80;;;;;;;;;;5113012;27;20462;-72
2022/06/13 06:28:06;;;;;;;9.50;2.90;;;;;;;;;;5112612;27;20545;-72
2022/06/13 06:30:37;;;;;;;7.83;2.63;;;;;;;;;;5114742;27;20439;-72
2022/06/13 06:33:11;;;;;;;10.57;2.73;;;;;;;;;;5112832;27;20474;-72
2022/06/13 06:35:40;;;;;;;8.70;3.60;;;;;;;;;;5112594;27;20574;-72
2022/06/13 06:38:10;;;;;;;6.23;2.40;;;;;;;;;;5114082;27;20482;-72
2022/06/13 06:40:40;;;;;;;7.07;3.30;;;;;;;;;;5111959;27;20480;-73
2022/06/13 06:43:09;;;;;;;8.00;2.57;;;;;;;;;;5112861;27;20454;-73
2022/06/13 06:45:37;;;;;;;6.97;2.87;;;;;;;;;;5107788;28;20467;-72
2022/06/13 06:48:07;;;;;;;5.80;3.50;;;;;;;;;;5110758;27;20877;-73
2022/06/13 06:50:37;;;;;;;7.93;4.40;;;;;;;;;;5107478;27;20555;-72
2022/06/13 06:53:08;;;;;;;12.20;3.93;;;;;;;;;;5109994;27;20515;-73
2022/06/13 07:01:14;;;;;;;6.10;3.07;;;;;;;;;;5104131;27;20545;-73
2022/06/13 07:03:47;;;;;;;6.43;2.57;;;;;;;;;;5113569;27;20474;-73
2022/06/13 07:06:18;;;;;;;9.57;3.07;;;;;;;;;;5110650;27;20454;-72
2022/06/13 07:08:46;;;;;;;7.53;3.57;;;;;;;;;;5111909;27;20740;-73
2022/06/13 07:14:05;;;;;;;6.73;2.50;;;;;;;;;;5112185;27;20445;-72
2022/06/13 07:16:35;;;;;;;9.47;3.00;;;;;;;;;;5109550;28;20573;-72
2022/06/13 07:19:04;;;;;;;6.83;2.70;;;;;;;;;;5110965;28;20467;-71
2022/06/13 07:21:32;;;;;;;7.43;2.53;;;;;;;;;;5111834;28;20459;-71
2022/06/13 07:24:01;;;;;;;9.63;2.53;;;;;;;;;;5111162;27;20459;-71
2022/06/13 07:26:31;;;;;;;8.53;2.37;;;;;;;;;;5111751;27;20884;-71
2022/06/13 07:29:01;;;;;;;8.90;4.20;;;;;;;;;;5108757;28;20477;-71
2022/06/13 07:31:33;;;;;;;3.97;2.37;;;;;;;;;;5105343;27;20453;-72
2022/06/13 07:34:03;;;;;;;7.47;2.80;;;;;;;;;;5113903;28;20455;-71
2022/06/13 07:36:33;;;;;;;7.67;2.00;;;;;;;;;;5103082;28;20551;-71
2022/06/13 07:39:02;;;;;;;5.50;2.50;;;;;;;;;;5110141;28;20486;-71
2022/06/13 07:41:34;;;;;;;7.73;2.03;;;;;;;;;;5102033;28;20558;-71
2022/06/13 07:44:20;;;;;;;7.20;2.30;;;;;;;;;;5108004;28;20469;-73
2022/06/13 07:46:50;;;;;;;6.50;2.97;;;;;;;;;;5109606;28;20549;-71
2022/06/13 07:49:18;;;;;;;6.53;2.73;;;;;;;;;;5111157;28;20474;-71
2022/06/13 07:51:50;;;;;;;6.40;2.17;;;;;;;;;;5104036;28;20467;-71
2022/06/13 07:54:18;;;;;;;5.10;2.30;;;;;;;;;;5105171;28;20531;-71
2022/06/13 07:56:47;;;;;;;8.47;2.70;;;;;;;;;;5111400;28;20502;-71
2022/06/13 07:59:21;;;;;;;9.27;2.70;;;;;;;;;;5105786;28;20562;-71
2022/06/13 08:01:58;;;;;;;6.47;2.10;;;;;;;;;;5106151;28;20508;-72
2022/06/13 08:04:29;;;;;;;4.70;2.20;;;;;;;;;;5102860;28;21250;-72
2022/06/13 08:06:59;;;;;;;9.67;2.30;;;;;;;;;;5108979;28;20458;-71
2022/06/13 08:09:35;;;;;;;8.10;2.57;;;;;;;;;;5102717;28;20491;-72
2022/06/13 08:12:03;;;;;;;6.33;2.10;;;;;;;;;;5114614;27;20450;-71
2022/06/13 08:14:31;;;;;;;7.73;2.50;;;;;;;;;;5114881;27;20462;-72
2022/06/13 08:17:01;;;;;;;8.13;2.27;;;;;;;;;;5115564;27;20482;-71
2022/06/13 08:19:29;;;;;;;5.93;2.23;;;;;;;;;;5114872;27;20467;-71
2022/06/13 08:22:04;;;;;;;8.17;2.47;;;;;;;;;;5110011;28;21077;-72
2022/06/13 08:24:33;;;;;;;8.23;2.33;;;;;;;;;;5110984;27;22912;-71
2022/06/13 08:27:11;;;;;;;11.70;2.60;;;;;;;;;;5109966;27;20945;-71
2022/06/13 08:29:39;;;;;;;9.83;2.90;;;;;;;;;;5099414;27;20593;-71
2022/06/13 08:32:09;;;;;;;5.73;2.00;;;;;;;;;;5110880;27;20558;-71
2022/06/13 08:34:38;;;;;;;7.20;2.50;;;;;;;;;;5109340;27;20478;-71
2022/06/13 08:37:09;;;;;;;9.23;2.03;;;;;;;;;;5101354;28;20768;-71
2022/06/13 08:39:37;;;;;;;8.67;1.83;;;;;;;;;;5112763;27;20917;-70
2022/06/13 08:42:10;;;;;;;5.63;2.43;;;;;;;;;;5105221;28;20467;-72
2022/06/13 08:44:56;;;;;;;5.13;1.90;;;;;;;;;;5105966;28;20474;-72
2022/06/13 08:47:31;;;;;;;6.37;1.50;;;;;;;;;;5111137;27;20462;-72
2022/06/13 08:50:06;;;;;;;5.70;2.23;;;;;;;;;;5112070;27;20472;-71
2022/06/13 08:52:37;;;;;;;8.30;2.00;;;;;;;;;;5104969;27;20541;-73
2022/06/13 08:55:12;;;;;;;4.77;1.80;;;;;;;;;;5109620;27;20458;-71
2022/06/13 08:57:43;;;;;;;4.53;1.63;;;;;;;;;;5108163;27;21247;-71
2022/06/13 09:00:13;;;;;;;4.70;1.97;;;;;;;;;;5111555;27;20463;-71
2022/06/13 09:02:51;;;;;;;4.80;2.23;;;;;;;;;;5110652;27;20458;-71
2022/06/13 09:05:27;;;;;;;5.63;1.80;;;;;;;;;;5113334;28;20454;-71
2022/06/13 09:08:05;;;;;;;4.60;1.80;;;;;;;;;;5121893;27;20462;-71
2022/06/13 09:10:37;;;;;;;4.43;1.30;;;;;;;;;;5110964;27;20457;-71
2022/06/13 09:13:09;;;;;;;8.27;1.20;;;;;;;;;;5089028;28;20463;-72
2022/06/13 09:15:44;;;;;;;8.63;1.37;;;;;;;;;;5114515;27;20524;-72
2022/06/13 09:18:15;;;;;;;4.13;1.07;;;;;;;;;;5113631;27;20892;-71
2022/06/13 09:20:53;;;;;;;4.03;1.43;;;;;;;;;;5114286;27;20839;-70
2022/06/13 09:23:25;;;;;;;3.67;1.03;;;;;;;;;;5112605;28;20896;-71
2022/06/13 09:25:55;;;;;;;7.30;1.77;;;;;;;;;;5110864;27;20558;-70
2022/06/13 09:28:31;;;;;;;3.80;1.30;;;;;;;;;;5112614;27;20553;-70
2022/06/13 09:31:01;;;;;;;2.70;1.20;;;;;;;;;;5113534;27;20458;-70
2022/06/13 09:33:34;;;;;;;4.30;1.87;;;;;;;;;;5112952;27;20734;-71
2022/06/13 09:36:08;;;;;;;3.53;1.50;;;;;;;;;;5108785;28;20506;-71
2022/06/13 09:38:37;;;;;;;4.23;1.40;;;;;;;;;;5111876;27;20458;-72
2022/06/13 09:41:24;;;;;;;2.70;1.37;;;;;;;;;;5112114;27;20486;-72
2022/06/13 09:43:58;;;;;;;3.73;1.43;;;;;;;;;;5114016;27;20668;-72
2022/06/13 09:46:31;;;;;;;3.80;1.40;;;;;;;;;;5107788;27;20553;-72
2022/06/13 09:49:06;;;;;;;5.40;1.37;;;;;;;;;;5103457;27;20580;-71
2022/06/13 09:51:40;;;;;;;4.53;1.83;;;;;;;;;;5112414;27;20858;-71
2022/06/13 09:54:11;;;;;;;4.50;2.20;;;;;;;;;;5113583;27;20458;-72
2022/06/13 09:56:45;;;;;;;5.70;1.30;;;;;;;;;;5112750;27;20486;-72
2022/06/13 09:59:20;;;;;;;4.00;1.60;;;;;;;;;;5112798;27;20539;-71
2022/06/13 10:01:49;;;;;;;4.33;1.70;;;;;;;;;;5111947;27;20458;-71
2022/06/13 10:04:27;;;;;;;5.03;1.40;;;;;;;;;;5112837;27;20464;-72
2022/06/13 10:07:04;;;;;;;2.47;1.30;;;;;;;;;;5112521;27;20467;-72
2022/06/13 10:09:39;;;;;;;3.90;2.13;;;;;;;;;;5113299;27;20443;-72
2022/06/13 10:12:18;;;;;;;5.47;1.90;;;;;;;;;;5109757;28;20874;-70
2022/06/13 10:15:07;;;;;;;5.87;1.60;;;;;;;;;;5112649;27;20471;-71
2022/06/13 10:17:49;;;;;;;5.90;2.20;;;;;;;;;;5112836;27;21205;-71
2022/06/13 10:20:26;;;;;;;3.73;1.53;;;;;;;;;;5108278;27;20461;-71
2022/06/13 10:23:00;;;;;;;2.67;1.47;;;;;;;;;;5112731;27;20450;-72
2022/06/13 10:25:34;;;;;;;2.70;1.37;;;;;;;;;;5114519;27;21107;-71
2022/06/13 10:28:08;;;;;;;4.20;1.90;;;;;;;;;;5114170;27;20470;-71
2022/06/13 10:30:42;;;;;;;4.20;1.70;;;;;;;;;;5114891;27;21152;-71
2022/06/13 10:33:21;;;;;;;4.57;1.70;;;;;;;;;;5113595;27;20803;-71
2022/06/13 10:35:55;;;;;;;2.90;1.60;;;;;;;;;;5113347;27;20492;-72
2022/06/13 10:38:33;;;;;;;3.83;1.70;;;;;;;;;;5114660;27;20860;-70
2022/06/13 10:41:02;;;;;;;3.43;2.00;;;;;;;;;;5113265;27;20461;-70
2022/06/13 10:43:31;;;;;;;2.80;1.23;;;;;;;;;;5108515;28;20744;-70
2022/06/13 10:45:59;;;;;;;5.43;2.57;;;;;;;;;;5113937;27;20451;-72
2022/06/13 10:48:30;;;;;;;3.03;1.57;;;;;;;;;;5112123;27;20462;-73
2022/06/13 10:51:01;;;;;;;3.53;1.43;;;;;;;;;;5100901;28;20465;-73
2022/06/13 10:53:48;;;;;;;5.13;1.13;;;;;;;;;;5113349;28;20773;-71
2022/06/13 10:56:18;;;;;;;2.23;0.87;;;;;;;;;;5111267;27;20457;-72
2022/06/13 10:58:50;;;;;;;2.37;1.20;;;;;;;;;;5109641;27;20496;-72
2022/06/13 11:01:25;;;;;;;3.40;1.20;;;;;;;;;;5106680;27;20515;-71
2022/06/13 11:04:06;;;;;;;3.30;1.00;;;;;;;;;;5107734;27;20466;-73
2022/06/13 11:06:39;;;;;;;2.90;1.40;;;;;;;;;;5095062;28;20470;-72
2022/06/13 11:09:14;;;;;;;6.20;1.03;;;;;;;;;;5111720;28;20481;-71
2022/06/13 11:11:42;;;;;;;4.77;1.10;;;;;;;;;;5107869;27;20462;-71
2022/06/13 11:14:25;;;;;;;4.00;1.00;;;;;;;;;;5112292;27;20470;-71
2022/06/13 11:25:22;;;;;;;3.23;1.00;;;;;;;;;;5110676;27;20438;-72
2022/06/13 11:28:01;;;;;;;1.70;0.70;;;;;;;;;;5111011;28;20462;-72
2022/06/13 11:30:46;;;;;;;3.83;0.83;;;;;;;;;;5111379;28;20458;-73
2022/06/13 11:33:20;;;;;;;3.00;0.70;;;;;;;;;;5107926;28;20558;-72
2022/06/13 11:35:53;;;;;;;3.40;0.70;;;;;;;;;;5110882;28;20458;-72
2022/06/13 11:38:26;;;;;;;1.73;0.60;;;;;;;;;;5110871;28;20497;-72
2022/06/13 11:41:05;;;;;;;2.17;0.70;;;;;;;;;;5114033;28;20462;-71
2022/06/13 11:43:40;;;;;;;3.67;0.70;;;;;;;;;;5112125;28;20477;-72
2022/06/13 11:46:15;;;;;;;2.40;1.10;;;;;;;;;;5108426;28;20634;-71
2022/06/13 11:48:51;;;;;;;3.57;0.63;;;;;;;;;;5112371;28;21192;-72
2022/06/13 11:51:21;;;;;;;3.27;0.70;;;;;;;;;;5108785;28;20458;-73
2022/06/13 11:53:51;;;;;;;2.87;0.70;;;;;;;;;;5103798;28;20484;-72
2022/06/13 11:56:25;;;;;;;3.10;0.87;;;;;;;;;;5111992;28;21129;-73
2022/06/13 11:58:55;;;;;;;2.10;0.80;;;;;;;;;;5109726;28;20485;-73
2022/06/13 12:01:25;;;;;;;5.10;0.80;;;;;;;;;;5114581;28;20450;-72
2022/06/13 12:04:00;;;;;;;2.47;0.83;;;;;;;;;;5116020;28;20482;-72
2022/06/13 12:06:33;;;;;;;1.90;0.90;;;;;;;;;;5110780;28;20495;-72
2022/06/13 12:09:21;;;;;;;5.63;0.97;;;;;;;;;;5112600;28;20456;-72
2022/06/13 12:11:56;;;;;;;2.20;0.83;;;;;;;;;;5110613;28;20504;-72
2022/06/13 12:14:26;;;;;;;2.00;0.73;;;;;;;;;;5109020;27;20476;-72
2022/06/13 12:16:58;;;;;;;1.67;0.60;;;;;;;;;;5106936;27;20462;-72
2022/06/13 12:19:36;;;;;;;4.83;0.80;;;;;;;;;;5108964;28;20463;-72
2022/06/13 12:22:14;;;;;;;6.03;1.73;;;;;;;;;;5111598;27;20455;-73
2022/06/13 12:24:55;;;;;;;3.47;0.70;;;;;;;;;;5109312;27;20489;-73
2022/06/13 12:27:29;;;;;;;1.67;0.70;;;;;;;;;;5098632;28;20474;-72
2022/06/13 12:30:13;;;;;;;1.70;0.60;;;;;;;;;;5105230;28;20461;-73
2022/06/13 12:32:46;;;;;;;1.60;0.57;;;;;;;;;;5102898;28;20494;-73
2022/06/13 12:35:30;;;;;;;3.33;0.70;;;;;;;;;;5110786;27;20450;-74
2022/06/13 12:38:02;;;;;;;2.30;0.80;;;;;;;;;;5104602;28;20560;-73
2022/06/13 12:40:37;;;;;;;7.67;0.93;;;;;;;;;;5105231;27;20877;-72
2022/06/13 12:43:27;;;;;;;2.33;0.63;;;;;;;;;;5106168;28;20465;-72
2022/06/13 12:46:10;;;;;;;1.97;0.60;;;;;;;;;;5109601;28;20459;-72
2022/06/13 12:48:52;;;;;;;3.07;0.77;;;;;;;;;;5110327;27;20454;-73
2022/06/13 12:51:29;;;;;;;1.80;0.80;;;;;;;;;;5109012;28;20980;-72
2022/06/13 12:54:08;;;;;;;3.20;1.07;;;;;;;;;;5106078;28;20968;-73
2022/06/13 12:56:42;;;;;;;3.03;1.13;;;;;;;;;;5101470;28;20878;-73
2022/06/13 12:59:21;;;;;;;3.10;0.70;;;;;;;;;;5110156;27;20596;-73
2022/06/13 13:01:56;;;;;;;5.00;0.97;;;;;;;;;;5111943;27;20452;-72
2022/06/13 13:04:53;;;;;;;3.10;0.70;;;;;;;;;;5105919;27;20466;-73
2022/06/13 13:07:27;;;;;;;1.60;0.70;;;;;;;;;;5104605;27;20456;-73
2022/06/13 13:10:20;;;;;;;1.87;0.63;;;;;;;;;;5110461;27;20465;-73
2022/06/13 13:13:16;;;;;;;2.90;0.80;;;;;;;;;;5103590;27;20471;-73
2022/06/13 13:15:52;;;;;;;3.00;0.90;;;;;;;;;;5100989;28;20455;-74
2022/06/13 13:18:33;;;;;;;1.70;0.70;;;;;;;;;;5109318;27;20497;-73
2022/06/13 13:21:03;;;;;;;4.10;1.27;;;;;;;;;;5110010;27;20458;-73
2022/06/13 13:23:40;;;;;;;2.67;0.70;;;;;;;;;;5103118;27;20821;-73
2022/06/13 13:26:13;;;;;;;3.43;0.90;;;;;;;;;;5116998;27;20548;-73
2022/06/13 13:28:52;;;;;;;4.10;0.77;;;;;;;;;;5107655;27;20854;-72
2022/06/13 13:31:29;;;;;;;2.30;0.70;;;;;;;;;;5111867;27;20459;-71
2022/06/13 13:34:02;;;;;;;2.70;0.83;;;;;;;;;;5116950;27;20787;-72
2022/06/13 13:36:48;;;;;;;3.23;0.87;;;;;;;;;;5104916;27;20548;-73
2022/06/13 13:39:18;;;;;;;8.07;1.10;;;;;;;;;;5112186;27;20602;-73
2022/06/13 13:41:48;;;;;;;3.00;0.80;;;;;;;;;;5107586;27;20486;-73
2022/06/13 13:44:24;;;;;;;4.33;1.13;;;;;;;;;;5109138;27;20458;-72
2022/06/13 13:47:02;;;;;;;2.20;0.90;;;;;;;;;;5113130;27;20467;-73
2022/06/13 13:49:34;;;;;;;5.90;1.00;;;;;;;;;;5105095;27;20482;-73
2022/06/13 13:52:04;;;;;;;2.90;1.00;;;;;;;;;;5109226;27;20535;-72
2022/06/13 13:57:20;;;;;;;4.77;1.13;;;;;;;;;;5112928;27;20560;-73
2022/06/13 13:59:52;;;;;;;7.67;1.13;;;;;;;;;;5113797;27;20773;-71
2022/06/13 14:02:30;;;;;;;4.23;1.27;;;;;;;;;;5109401;27;20542;-73
2022/06/13 14:05:19;;;;;;;3.00;0.83;;;;;;;;;;5093527;27;20462;-73
2022/06/13 14:07:52;;;;;;;3.23;0.97;;;;;;;;;;5104117;27;20461;-72
2022/06/13 14:10:22;;;;;;;2.67;0.90;;;;;;;;;;5111615;27;20469;-72
2022/06/13 14:13:21;;;;;;;3.57;0.90;;;;;;;;;;5102730;27;20889;-73
2022/06/13 14:16:05;;;;;;;3.07;0.70;;;;;;;;;;5105757;27;20555;-73
2022/06/13 14:18:39;;;;;;;2.20;0.70;;;;;;;;;;5112141;27;20487;-71
2022/06/13 14:21:16;;;;;;;3.83;1.43;;;;;;;;;;5105338;27;20467;-71
2022/06/13 14:23:49;;;;;;;4.70;0.93;;;;;;;;;;5108201;27;20472;-72
2022/06/13 14:26:24;;;;;;;2.93;1.00;;;;;;;;;;5104971;27;20531;-71
2022/06/13 14:28:54;;;;;;;4.13;1.63;;;;;;;;;;5111539;27;20462;-72
2022/06/13 14:31:26;;;;;;;1.70;0.70;;;;;;;;;;5120771;27;20465;-72
2022/06/13 14:37:09;;;;;;;5.17;1.10;;;;;;;;;;5106519;27;20462;-72
2022/06/13 14:39:41;;;;;;;3.40;0.80;;;;;;;;;;5111120;27;20794;-73
2022/06/13 14:42:22;;;;;;;3.90;0.80;;;;;;;;;;5105745;27;20463;-72
2022/06/13 14:44:53;;;;;;;2.40;1.00;;;;;;;;;;5105319;27;20475;-72
2022/06/13 14:47:23;;;;;;;4.63;1.10;;;;;;;;;;5109171;27;20514;-72
2022/06/13 14:50:03;;;;;;;1.90;0.90;;;;;;;;;;5102752;28;20490;-72
2022/06/13 14:52:32;;;;;;;2.13;0.90;;;;;;;;;;5095738;27;20470;-72
2022/06/13 14:55:19;;;;;;;5.10;1.30;;;;;;;;;;5107526;27;20919;-73
2022/06/13 14:57:54;;;;;;;5.83;1.00;;;;;;;;;;5110532;27;20467;-72
2022/06/13 15:00:28;;;;;;;2.63;1.00;;;;;;;;;;5105472;27;20565;-73
2022/06/13 15:03:05;;;;;;;5.70;1.87;;;;;;;;;;5106342;27;20862;-73
2022/06/13 15:05:51;;;;;;;4.00;1.00;;;;;;;;;;5101785;27;20466;-73
2022/06/13 15:08:23;;;;;;;4.80;1.00;;;;;;;;;;5101797;27;20515;-73
2022/06/13 15:10:55;;;;;;;2.50;0.97;;;;;;;;;;5106284;27;21052;-72
2022/06/13 15:13:27;;;;;;;6.40;0.90;;;;;;;;;;5105326;27;20878;-75
2022/06/13 15:16:00;;;;;;;2.03;0.70;;;;;;;;;;5110581;27;20473;-73
2022/06/13 15:18:31;;;;;;;4.87;0.87;;;;;;;;;;5108401;27;20487;-74
2022/06/13 15:21:03;;;;;;;8.00;1.30;;;;;;;;;;5099024;28;20907;-71
2022/06/13 15:23:36;;;;;;;5.37;0.70;;;;;;;;;;5103334;27;20462;-73
2022/06/13 15:26:08;;;;;;;2.30;0.90;;;;;;;;;;5105367;27;20814;-71
2022/06/13 15:28:51;;;;;;;2.07;1.00;;;;;;;;;;5108628;27;20459;-73
2022/06/13 15:31:25;;;;;;;5.93;1.10;;;;;;;;;;5102481;27;20478;-73
2022/06/13 15:34:08;;;;;;;5.13;1.47;;;;;;;;;;5102182;28;20488;-73
2022/06/13 15:36:39;;;;;;;4.07;1.50;;;;;;;;;;5104247;28;20558;-73
2022/06/13 15:39:09;;;;;;;4.37;1.00;;;;;;;;;;5108773;27;20580;-73
2022/06/13 15:41:42;;;;;;;5.90;1.40;;;;;;;;;;5109948;27;20551;-74